Time;durP1;ratioP1;P1;durP2;ratioP2;P2;SDS_P1;SDS_P2;PMS_P1;PMS_P2;Temp;Humidity;BMP_temperature;BMP_pressure;BME280_temperature;BME280_humidity;BME280_pressure;Samples;Min_cycle;Max_cycle;Signal;HPM_P1;HPM_P2
2021/06/07 00:02:18;;;;;;;2.30;1.63;;;14.00;99.90;;;;;;5043034;28;20037;-85
2021/06/07 00:04:46;;;;;;;3.35;1.85;;;14.00;99.90;;;;;;5032561;28;20067;-86
2021/06/07 00:07:19;;;;;;;3.20;1.55;;;14.00;99.90;;;;;;5039561;28;20104;-87
2021/06/07 00:09:48;;;;;;;2.60;1.70;;;13.90;99.90;;;;;;5032898;28;20033;-86
2021/06/07 00:12:16;;;;;;;2.42;1.40;;;13.90;99.90;;;;;;5015793;28;20727;-86
2021/06/07 00:14:43;;;;;;;3.35;1.70;;;13.80;99.90;;;;;;5034211;28;20441;-86
2021/06/07 00:17:13;;;;;;;5.25;1.95;;;13.80;99.90;;;;;;5032667;28;20469;-85
2021/06/07 00:19:41;;;;;;;2.92;1.67;;;13.70;99.90;;;;;;5052049;28;20029;-85
2021/06/07 00:22:18;;;;;;;3.30;1.60;;;13.70;99.90;;;;;;5072689;28;20033;-86
2021/06/07 00:24:44;;;;;;;2.45;1.45;;;13.70;99.90;;;;;;5076106;28;20045;-84
2021/06/07 00:27:13;;;;;;;5.65;2.00;;;13.60;99.90;;;;;;5085560;28;20025;-86
2021/06/07 00:29:43;;;;;;;2.97;1.63;;;13.60;99.90;;;;;;5080905;28;20013;-84
2021/06/07 00:32:08;;;;;;;3.85;1.98;;;13.60;99.90;;;;;;5083823;28;20100;-85
2021/06/07 00:34:35;;;;;;;2.10;1.33;;;13.50;99.90;;;;;;5064833;28;20036;-85
2021/06/07 00:37:00;;;;;;;2.90;1.58;;;13.50;99.90;;;;;;5056579;28;20025;-86
2021/06/07 00:39:28;;;;;;;3.83;1.80;;;13.50;99.90;;;;;;5054697;28;20035;-86
2021/06/07 00:41:54;;;;;;;3.20;1.80;;;13.50;99.90;;;;;;5055446;28;20060;-86
2021/06/07 00:44:25;;;;;;;3.35;1.83;;;13.40;99.90;;;;;;5072631;28;20114;-85
2021/06/07 00:46:55;;;;;;;3.85;1.80;;;13.40;99.90;;;;;;5072714;28;20024;-86
2021/06/07 00:49:21;;;;;;;4.22;1.70;;;13.30;99.90;;;;;;5054856;28;20357;-86
2021/06/07 00:51:47;;;;;;;2.85;1.90;;;13.30;99.90;;;;;;5073479;28;20037;-86
2021/06/07 00:54:14;;;;;;;3.30;1.60;;;13.30;99.90;;;;;;5039149;28;20447;-85
2021/06/07 00:56:46;;;;;;;3.47;1.80;;;13.30;99.90;;;;;;5073619;28;20028;-85
2021/06/07 00:59:16;;;;;;;2.55;1.35;;;13.30;99.90;;;;;;5074031;28;20040;-87
2021/06/07 01:01:44;;;;;;;3.80;1.83;;;13.30;99.90;;;;;;5073819;28;20025;-85
2021/06/07 01:04:13;;;;;;;2.92;1.75;;;13.20;99.90;;;;;;5056022;28;20032;-84
2021/06/07 01:06:38;;;;;;;2.70;1.63;;;13.20;99.90;;;;;;5055951;28;20036;-85
2021/06/07 01:09:07;;;;;;;4.63;1.77;;;13.20;99.90;;;;;;5063497;28;20021;-85
2021/06/07 01:11:36;;;;;;;2.83;1.63;;;13.20;99.90;;;;;;5063971;28;20472;-84
2021/06/07 01:14:06;;;;;;;2.30;1.55;;;13.10;99.90;;;;;;5073297;28;20029;-86
2021/06/07 01:16:32;;;;;;;3.03;1.70;;;13.10;99.90;;;;;;5055707;28;20123;-86
2021/06/07 01:18:58;;;;;;;2.95;1.35;;;13.10;99.90;;;;;;5073422;28;20106;-86
2021/06/07 01:21:29;;;;;;;2.22;1.58;;;13.00;99.90;;;;;;5057169;28;20484;-85
2021/06/07 01:23:56;;;;;;;3.40;1.35;;;13.00;99.90;;;;;;5057294;28;20079;-84
2021/06/07 01:26:24;;;;;;;1.83;1.13;;;13.00;99.90;;;;;;5077177;28;20029;-85
2021/06/07 01:28:55;;;;;;;2.80;1.85;;;13.00;99.90;;;;;;5059235;28;20035;-85
2021/06/07 01:31:22;;;;;;;2.00;1.40;;;12.90;99.90;;;;;;5058257;28;20468;-85
2021/06/07 01:33:54;;;;;;;3.03;1.60;;;12.90;99.90;;;;;;5059564;28;20059;-85
2021/06/07 01:36:21;;;;;;;2.50;1.73;;;12.90;99.90;;;;;;5059317;28;20037;-86
2021/06/07 01:38:50;;;;;;;3.88;1.80;;;12.80;99.90;;;;;;5076582;28;20086;-86
2021/06/07 01:41:18;;;;;;;2.08;1.45;;;12.80;99.90;;;;;;5081697;28;20020;-86
2021/06/07 01:43:44;;;;;;;1.85;1.20;;;12.70;99.90;;;;;;5100695;28;20051;-83
2021/06/07 01:46:10;;;;;;;3.08;1.70;;;12.70;99.90;;;;;;5096465;28;20040;-86
2021/06/07 01:48:38;;;;;;;1.67;1.40;;;12.70;99.90;;;;;;5077633;28;20453;-84
2021/06/07 01:51:06;;;;;;;3.50;1.60;;;12.60;99.90;;;;;;5076596;28;20058;-85
2021/06/07 01:53:33;;;;;;;2.55;1.55;;;12.70;99.90;;;;;;5042337;28;20032;-85
2021/06/07 01:56:03;;;;;;;2.33;1.50;;;12.60;99.90;;;;;;5058864;28;20428;-85
2021/06/07 01:58:29;;;;;;;1.83;1.23;;;12.60;99.90;;;;;;5042492;28;20036;-86
2021/06/07 02:01:00;;;;;;;3.88;1.40;;;12.60;99.90;;;;;;5058747;28;20074;-85
2021/06/07 02:03:27;;;;;;;4.70;1.70;;;12.60;99.90;;;;;;5058852;28;20043;-85
2021/06/07 02:05:56;;;;;;;2.58;1.60;;;12.60;99.90;;;;;;5076961;28;20448;-85
2021/06/07 02:08:31;;;;;;;3.40;1.80;;;12.50;99.90;;;;;;5058626;28;20066;-86
2021/06/07 02:11:14;;;;;;;1.85;1.30;;;12.50;99.90;;;;;;5058212;28;20122;-85
2021/06/07 02:13:41;;;;;;;1.92;1.15;;;12.60;99.90;;;;;;5058052;28;20080;-85
2021/06/07 02:16:14;;;;;;;2.85;1.27;;;12.60;99.90;;;;;;5076229;28;20032;-85
2021/06/07 02:18:39;;;;;;;4.10;1.40;;;12.50;99.90;;;;;;5058202;28;20028;-84
2021/06/07 02:21:07;;;;;;;3.28;1.10;;;12.50;99.90;;;;;;5058577;28;20096;-85
2021/06/07 02:23:34;;;;;;;2.22;1.20;;;12.50;99.90;;;;;;5060263;28;20067;-85
2021/06/07 02:26:02;;;;;;;2.28;1.40;;;12.50;99.90;;;;;;5051043;28;20139;-85
2021/06/07 02:28:28;;;;;;;1.90;1.20;;;12.50;99.90;;;;;;5041617;28;20045;-84
2021/06/07 02:30:54;;;;;;;2.13;1.40;;;12.50;99.90;;;;;;5075688;28;20025;-84
2021/06/07 02:33:20;;;;;;;1.58;1.15;;;12.50;99.90;;;;;;5058229;28;20040;-87
2021/06/07 02:35:48;;;;;;;3.15;1.17;;;12.50;99.90;;;;;;5057644;28;20036;-87
2021/06/07 02:38:17;;;;;;;2.60;1.35;;;12.50;99.90;;;;;;5041250;28;20135;-86
2021/06/07 02:40:45;;;;;;;2.25;1.42;;;12.50;99.90;;;;;;5075342;28;20040;-85
2021/06/07 02:43:15;;;;;;;1.85;1.10;;;12.50;99.90;;;;;;5057936;28;20043;-85
2021/06/07 02:45:43;;;;;;;2.35;1.25;;;12.50;99.90;;;;;;5057255;28;20116;-86
2021/06/07 02:48:09;;;;;;;2.47;1.10;;;12.40;99.90;;;;;;5057704;28;20391;-85
2021/06/07 02:50:41;;;;;;;2.40;1.10;;;12.40;99.90;;;;;;5040872;28;20036;-87
2021/06/07 02:53:07;;;;;;;2.35;1.00;;;12.40;99.90;;;;;;5057389;28;20445;-86
2021/06/07 02:55:39;;;;;;;2.60;1.33;;;12.40;99.90;;;;;;5040529;28;20453;-85
2021/06/07 02:58:06;;;;;;;2.70;1.50;;;12.30;99.90;;;;;;5074572;28;20098;-84
2021/06/07 03:00:54;;;;;;;1.67;1.20;;;12.30;99.90;;;;;;5056945;28;20028;-85
2021/06/07 03:03:21;;;;;;;2.88;1.25;;;12.30;99.90;;;;;;5057084;28;20043;-85
2021/06/07 03:05:49;;;;;;;2.35;1.60;;;12.30;99.90;;;;;;5056476;28;20123;-86
2021/06/07 03:08:18;;;;;;;1.98;1.02;;;12.30;99.90;;;;;;5057156;28;20033;-85
2021/06/07 03:10:48;;;;;;;3.83;1.60;;;12.20;99.90;;;;;;5056312;28;20090;-85
2021/06/07 03:13:15;;;;;;;2.75;1.40;;;12.20;99.90;;;;;;5074946;28;20468;-86
2021/06/07 03:15:41;;;;;;;2.45;1.60;;;12.20;99.90;;;;;;5056429;28;20040;-84
2021/06/07 03:18:07;;;;;;;3.35;1.85;;;12.20;99.90;;;;;;5063872;28;20036;-85
2021/06/07 03:20:35;;;;;;;3.75;1.75;;;12.20;99.90;;;;;;5063551;28;20063;-84
2021/06/07 03:23:09;;;;;;;2.45;1.15;;;12.20;99.90;;;;;;5056217;28;20035;-85
2021/06/07 03:25:36;;;;;;;2.38;1.50;;;12.20;99.90;;;;;;5056482;28;20079;-84
2021/06/07 03:28:04;;;;;;;2.00;1.13;;;12.20;99.90;;;;;;5074470;28;20021;-86
2021/06/07 03:30:30;;;;;;;2.38;1.35;;;12.20;99.90;;;;;;5094299;28;20047;-85
2021/06/07 03:32:55;;;;;;;2.15;1.40;;;12.20;99.90;;;;;;5080929;28;20044;-84
2021/06/07 03:35:22;;;;;;;3.00;1.40;;;12.20;99.90;;;;;;5087163;28;20036;-85
2021/06/07 03:37:48;;;;;;;2.55;1.17;;;12.20;99.90;;;;;;5075413;28;20055;-86
2021/06/07 03:40:22;;;;;;;2.95;1.25;;;12.20;99.90;;;;;;5056703;28;20032;-86
2021/06/07 03:42:48;;;;;;;3.50;1.70;;;12.30;99.90;;;;;;5073973;28;20039;-85
2021/06/07 03:45:16;;;;;;;3.13;1.45;;;12.30;99.90;;;;;;5057413;28;20032;-86
2021/06/07 03:47:43;;;;;;;4.35;1.42;;;12.30;99.90;;;;;;5056246;28;20047;-84
2021/06/07 03:50:11;;;;;;;3.30;1.30;;;12.30;99.90;;;;;;5074255;28;20031;-86
2021/06/07 03:52:39;;;;;;;2.88;1.35;;;12.30;99.90;;;;;;5056215;28;20040;-86
2021/06/07 03:55:10;;;;;;;1.80;1.10;;;12.30;99.90;;;;;;5056184;28;20038;-86
2021/06/07 03:57:38;;;;;;;3.67;1.58;;;12.30;99.90;;;;;;5056531;28;20033;-86
2021/06/07 04:00:10;;;;;;;1.98;1.20;;;12.30;99.90;;;;;;5074017;28;20457;-85
2021/06/07 04:02:39;;;;;;;1.75;1.20;;;12.30;99.90;;;;;;5039343;28;20041;-86
2021/06/07 04:05:07;;;;;;;2.30;1.50;;;12.40;99.90;;;;;;5056096;28;20012;-85
2021/06/07 04:07:34;;;;;;;2.10;1.40;;;12.40;99.90;;;;;;5055982;28;20035;-85
2021/06/07 04:10:05;;;;;;;2.33;1.35;;;12.40;99.90;;;;;;5056070;28;20087;-85
2021/06/07 04:12:30;;;;;;;1.60;1.08;;;12.40;99.90;;;;;;5055867;28;20036;-86
2021/06/07 04:14:59;;;;;;;1.73;1.08;;;12.40;99.90;;;;;;5056004;28;20031;-86
2021/06/07 04:17:25;;;;;;;3.25;1.13;;;12.50;99.90;;;;;;5055520;28;20119;-86
2021/06/07 04:19:53;;;;;;;1.00;0.85;;;12.40;99.90;;;;;;5071899;28;20025;-86
2021/06/07 04:22:19;;;;;;;2.47;0.98;;;12.50;99.90;;;;;;5038989;28;20492;-85
2021/06/07 04:24:45;;;;;;;3.08;1.45;;;12.50;99.90;;;;;;5049804;28;20041;-85
2021/06/07 04:27:13;;;;;;;2.30;1.00;;;12.50;99.90;;;;;;5021998;28;20048;-85
2021/06/07 04:29:39;;;;;;;1.70;1.00;;;12.50;99.90;;;;;;5044144;28;20385;-86
2021/06/07 04:32:06;;;;;;;2.33;1.15;;;12.60;99.90;;;;;;5045624;28;20052;-86
2021/06/07 04:34:31;;;;;;;1.83;1.42;;;12.70;99.90;;;;;;5034574;28;20044;-85
2021/06/07 04:36:58;;;;;;;1.60;0.85;;;12.70;99.90;;;;;;5033944;28;20449;-87
2021/06/07 04:39:26;;;;;;;2.05;1.42;;;12.80;99.90;;;;;;5045180;28;20033;-84
2021/06/07 04:41:52;;;;;;;3.47;1.88;;;12.90;99.90;;;;;;5040094;28;20084;-87
2021/06/07 04:44:18;;;;;;;3.72;1.30;;;12.90;99.90;;;;;;5023305;28;20200;-86
2021/06/07 04:46:44;;;;;;;2.83;1.23;;;12.90;99.90;;;;;;5039133;28;20072;-86
2021/06/07 04:49:10;;;;;;;2.17;0.90;;;13.00;99.90;;;;;;5037484;28;20401;-86
2021/06/07 04:51:38;;;;;;;2.25;1.20;;;13.00;99.90;;;;;;5036238;28;20041;-86
2021/06/07 04:54:05;;;;;;;1.67;1.10;;;13.10;99.90;;;;;;5032748;28;20033;-88
2021/06/07 04:56:32;;;;;;;2.35;1.30;;;13.10;99.90;;;;;;5044699;28;20072;-88
2021/06/07 04:59:00;;;;;;;3.22;1.10;;;13.20;99.90;;;;;;5046897;28;20369;-86
2021/06/07 05:01:26;;;;;;;2.17;1.40;;;13.20;99.90;;;;;;5046993;28;20497;-86
2021/06/07 05:03:51;;;;;;;1.35;0.90;;;13.40;99.90;;;;;;5041464;28;20121;-85
2021/06/07 05:06:26;;;;;;;1.20;0.90;;;13.40;99.90;;;;;;5039926;28;20046;-86
2021/06/07 05:08:53;;;;;;;3.83;0.98;;;13.40;99.90;;;;;;5040484;28;20032;-87
2021/06/07 05:11:24;;;;;;;1.23;0.82;;;13.50;99.90;;;;;;5040249;28;20034;-87
2021/06/07 05:13:50;;;;;;;1.90;0.85;;;13.50;99.90;;;;;;5036347;28;20056;-86
2021/06/07 05:16:16;;;;;;;1.13;0.73;;;13.60;99.90;;;;;;5042137;28;20067;-86
2021/06/07 05:18:41;;;;;;;1.88;0.95;;;13.70;99.90;;;;;;5059704;28;20040;-86
2021/06/07 05:21:07;;;;;;;1.05;0.80;;;13.70;99.90;;;;;;5064143;28;20018;-85
2021/06/07 05:23:33;;;;;;;2.38;0.82;;;13.80;99.90;;;;;;5057724;28;20033;-86
2021/06/07 05:26:04;;;;;;;1.70;1.02;;;13.80;99.90;;;;;;5074884;28;20067;-85
2021/06/07 05:28:31;;;;;;;3.03;1.10;;;13.90;99.90;;;;;;5085337;28;20036;-86
2021/06/07 05:30:57;;;;;;;2.08;1.40;;;13.90;99.90;;;;;;5066767;28;20085;-87
2021/06/07 05:33:28;;;;;;;1.42;0.90;;;14.00;99.90;;;;;;5076621;28;20072;-85
2021/06/07 05:35:55;;;;;;;3.20;1.02;;;14.10;99.90;;;;;;5053279;28;20021;-85
2021/06/07 05:38:21;;;;;;;1.67;0.98;;;14.10;99.90;;;;;;5075877;28;20048;-87
2021/06/07 05:40:53;;;;;;;2.47;1.35;;;14.10;99.90;;;;;;5057947;28;20033;-86
2021/06/07 05:43:19;;;;;;;1.50;1.08;;;14.20;99.90;;;;;;5068092;28;20063;-86
2021/06/07 05:45:45;;;;;;;2.20;1.00;;;14.20;99.90;;;;;;5055211;28;20067;-87
2021/06/07 05:48:15;;;;;;;3.78;1.33;;;14.30;99.90;;;;;;5055451;28;20199;-87
2021/06/07 05:50:43;;;;;;;2.53;1.00;;;14.30;99.90;;;;;;5073836;28;20037;-85
2021/06/07 05:53:11;;;;;;;2.95;1.08;;;14.40;99.90;;;;;;5054277;28;20052;-86
2021/06/07 05:55:40;;;;;;;2.33;0.90;;;14.50;99.90;;;;;;5072549;28;20104;-88
2021/06/07 05:58:15;;;;;;;1.50;0.70;;;14.60;99.90;;;;;;5067085;28;20020;-87
2021/06/07 06:00:50;;;;;;;1.35;0.75;;;14.70;99.90;;;;;;5071742;28;20040;-85
2021/06/07 06:03:20;;;;;;;1.60;0.80;;;14.70;99.90;;;;;;5061397;28;20159;-87
2021/06/07 06:05:54;;;;;;;2.08;1.00;;;14.80;99.90;;;;;;5055706;28;20067;-88
2021/06/07 06:08:34;;;;;;;1.98;0.95;;;14.90;99.90;;;;;;5074185;28;20032;-87
2021/06/07 06:11:04;;;;;;;1.40;0.68;;;14.90;99.90;;;;;;5048850;28;20032;-87
2021/06/07 06:16:32;;;;;;;2.10;0.60;;;15.00;99.90;;;;;;5057814;28;20032;-86
2021/06/07 06:19:03;;;;;;;1.95;0.80;;;15.10;99.90;;;;;;5023983;28;20024;-87
2021/06/07 06:21:28;;;;;;;1.60;0.80;;;15.10;99.90;;;;;;5057684;28;20032;-88
2021/06/07 06:24:03;;;;;;;1.77;0.80;;;15.10;99.90;;;;;;5056227;28;20115;-89
2021/06/07 06:26:31;;;;;;;1.80;0.80;;;15.20;99.90;;;;;;5074682;28;20033;-88
2021/06/07 06:28:59;;;;;;;3.53;0.80;;;15.20;99.90;;;;;;5053763;28;20028;-88
2021/06/07 06:31:31;;;;;;;1.27;0.75;;;15.30;99.90;;;;;;5074538;28;20032;-87
2021/06/07 06:33:59;;;;;;;1.85;0.70;;;15.40;99.90;;;;;;5063115;28;20028;-88
2021/06/07 06:36:27;;;;;;;3.28;1.02;;;15.40;99.90;;;;;;5057260;28;20173;-87
2021/06/07 06:39:05;;;;;;;;;;;;;;;;;;;;;
2021/06/07 06:41:42;;;;;;;;;;;;;;;;;;;;;
2021/06/07 06:44:27;;;;;;;1.00;0.60;;;15.60;99.90;;;;;;5073600;28;20027;-86
2021/06/07 06:47:11;;;;;;;;;;;;;;;;;;;;;
2021/06/07 06:49:43;;;;;;;1.15;0.60;;;15.70;99.90;;;;;;5059517;28;20043;-87
2021/06/07 06:52:29;;;;;;;0.85;0.60;;;15.70;99.90;;;;;;5067604;28;20045;-86
2021/06/07 06:55:18;;;;;;;2.17;0.70;;;15.80;99.90;;;;;;5055675;28;20063;-87
2021/06/07 06:57:49;;;;;;;1.00;0.60;;;15.80;99.90;;;;;;5071649;28;20100;-86
2021/06/07 07:00:27;;;;;;;1.98;0.60;;;15.90;99.90;;;;;;5054484;28;20032;-86
2021/06/07 07:03:10;;;;;;;1.10;0.55;;;16.00;99.90;;;;;;5055132;28;20091;-86
2021/06/07 07:05:43;;;;;;;1.85;0.60;;;16.10;99.90;;;;;;5072379;28;20028;-87
2021/06/07 07:08:16;;;;;;;1.58;0.65;;;16.10;99.90;;;;;;5060469;28;20055;-87
2021/06/07 07:11:03;;;;;;;2.13;0.70;;;16.20;99.90;;;;;;5078966;28;20033;-86
2021/06/07 07:13:40;;;;;;;;;;;;;;;;;;;;;
2021/06/07 07:16:53;;;;;;;3.20;1.02;;;16.30;99.90;;;;;;5070399;28;20012;-87
2021/06/07 07:19:54;;;;;;;;;;;;;;;;;;;;;
2021/06/07 07:22:17;;;;;;;1.27;0.73;;;16.40;99.90;;;;;;5063601;28;20053;-89
2021/06/07 07:24:52;;;;;;;1.77;0.70;;;16.50;99.90;;;;;;5070737;28;20056;-87
2021/06/07 07:27:39;;;;;;;1.85;0.52;;;16.60;99.90;;;;;;5054889;28;20094;-86
2021/06/07 07:30:38;;;;;;;;;;;;;;;;;;;;;
2021/06/07 07:33:14;;;;;;;1.02;0.60;;;16.70;99.90;;;;;;5072839;28;20145;-86
2021/06/07 07:36:16;;;;;;;;;;;;;;;;;;;;;
2021/06/07 07:38:55;;;;;;;1.50;1.08;;;16.90;99.90;;;;;;5072256;28;20037;-88
2021/06/07 07:41:34;;;;;;;1.40;0.60;;;16.90;99.30;;;;;;5054569;28;20064;-87
2021/06/07 07:44:45;;;;;;;;;;;;;;;;;;;;;
2021/06/07 07:47:17;;;;;;;2.45;0.77;;;17.10;98.60;;;;;;5071763;28;20033;-89
2021/06/07 07:49:50;;;;;;;4.13;0.80;;;17.10;98.80;;;;;;5054077;28;20031;-88
2021/06/07 07:52:43;;;;;;;1.70;0.60;;;17.20;98.80;;;;;;5071434;28;20036;-88
2021/06/07 07:58:41;;;;;;;1.90;0.70;;;17.30;98.70;;;;;;5060655;28;20013;-89
2021/06/07 08:01:21;;;;;;;1.70;0.60;;;17.30;98.80;;;;;;5056134;28;20122;-90
2021/06/07 08:04:19;;;;;;;0.60;0.60;;;17.40;98.70;;;;;;5073472;28;20388;-88
2021/06/07 08:06:59;;;;;;;1.52;0.65;;;17.50;98.60;;;;;;5057345;28;20407;-86
2021/06/07 08:09:30;;;;;;;1.73;0.60;;;17.60;98.30;;;;;;5055415;28;20452;-85
2021/06/07 08:11:58;;;;;;;1.63;0.70;;;17.60;98.10;;;;;;5055438;28;20407;-87
2021/06/07 08:14:39;;;;;;;1.30;0.73;;;17.70;98.00;;;;;;5072989;28;20067;-87
2021/06/07 08:17:17;;;;;;;;;;;;;;;;;;;;;
2021/06/07 08:19:53;;;;;;;1.17;0.80;;;17.80;97.90;;;;;;5056745;28;20029;-85
2021/06/07 08:22:37;;;;;;;;;;;;;;;;;;;;;
2021/06/07 08:25:14;;;;;;;1.92;0.80;;;18.00;97.70;;;;;;5073577;28;20038;-86
2021/06/07 08:27:54;;;;;;;2.35;0.75;;;18.10;97.40;;;;;;5054485;28;20031;-88
2021/06/07 08:30:52;;;;;;;2.58;0.90;;;18.10;96.90;;;;;;5055095;28;20032;-88
2021/06/07 08:33:39;;;;;;;;;;;;;;;;;;;;;
2021/06/07 08:38:56;;;;;;;1.92;0.80;;;18.20;96.70;;;;;;5057684;28;20021;-86
2021/06/07 08:41:28;;;;;;;2.17;0.80;;;18.30;96.90;;;;;;5054830;28;20473;-88
2021/06/07 08:44:05;;;;;;;0.85;0.60;;;18.40;96.70;;;;;;5053035;28;20029;-87
2021/06/07 08:46:41;;;;;;;1.15;0.63;;;18.40;96.80;;;;;;5054631;28;20487;-87
2021/06/07 08:49:36;;;;;;;1.75;0.70;;;18.50;96.90;;;;;;5053580;28;20032;-87
2021/06/07 08:52:13;;;;;;;1.15;0.70;;;18.60;96.90;;;;;;5015005;28;20040;-87
2021/06/07 08:54:48;;;;;;;;;;;;;;;;;;;;;
2021/06/07 08:57:24;;;;;;;;;;;;;;;;;;;;;
2021/06/07 09:00:00;;;;;;;1.88;0.70;;;18.90;96.50;;;;;;5078117;28;20104;-86
2021/06/07 09:02:38;;;;;;;2.33;0.82;;;18.90;96.60;;;;;;5055226;28;20468;-86
2021/06/07 09:05:05;;;;;;;2.00;0.82;;;19.00;96.30;;;;;;5046776;28;20112;-87
2021/06/07 09:07:32;;;;;;;1.52;0.70;;;19.00;95.70;;;;;;5072371;28;20029;-85
2021/06/07 09:10:26;;;;;;;2.00;0.70;;;19.10;95.60;;;;;;5072762;28;20146;-86
2021/06/07 09:13:07;;;;;;;;;;;;;;;;;;;;;
2021/06/07 09:16:08;;;;;;;;;;;;;;;;;;;;;
2021/06/07 09:18:50;;;;;;;;;;;;;;;;;;;;;
2021/06/07 09:21:34;;;;;;;2.58;0.77;;;19.60;95.10;;;;;;5072608;28;20360;-88
2021/06/07 09:27:27;;;;;;;1.88;0.60;;;19.80;94.80;;;;;;5047534;28;19935;-89
2021/06/07 09:30:02;;;;;;;2.80;0.57;;;19.90;94.80;;;;;;5051385;28;20052;-89
2021/06/07 09:36:28;;;;;;;1.38;0.60;;;21.60;94.40;;;;;;5054952;28;20024;-89
2021/06/07 09:39:43;;;;;;;1.58;0.70;;;23.20;93.10;;;;;;5057389;28;20091;-88
2021/06/07 09:42:27;;;;;;;1.50;0.65;;;24.20;91.50;;;;;;5070586;28;20027;-87
2021/06/07 09:45:02;;;;;;;1.10;0.50;;;25.10;91.10;;;;;;5072012;28;20434;-91
2021/06/07 09:47:35;;;;;;;3.03;0.60;;;25.60;90.50;;;;;;5057948;28;20032;-90
2021/06/07 09:50:12;;;;;;;3.03;0.70;;;26.10;88.30;;;;;;5075658;28;20342;-90
2021/06/07 09:55:39;;;;;;;1.13;0.50;;;26.50;82.30;;;;;;5062433;28;20032;-91
2021/06/07 09:58:18;;;;;;;;;;;;;;;;;;;;;
2021/06/07 10:00:52;;;;;;;1.60;0.52;;;27.30;79.50;;;;;;5076968;28;20031;-90
2021/06/07 10:03:21;;;;;;;3.00;0.60;;;27.60;79.50;;;;;;5058174;28;20048;-90
2021/06/07 10:05:49;;;;;;;1.70;0.80;;;27.90;77.40;;;;;;5058916;28;20029;-93
2021/06/07 10:08:15;;;;;;;2.45;0.80;;;28.30;76.50;;;;;;5078224;28;20029;-91
2021/06/07 10:10:53;;;;;;;;;;;;;;;;;;;;;
2021/06/07 10:13:22;;;;;;;1.35;0.65;;;28.70;73.80;;;;;;5075389;28;20468;-92
2021/06/07 10:16:37;;;;;;;;;;;;;;;;;;;;;
2021/06/07 10:20:46;;;;;;;1.70;0.68;;;29.10;70.40;;;;;;5067863;28;20024;-91
2021/06/07 10:22:43;;;;;;;2.23;0.60;;;29.40;69.40;;;;;;5063769;28;20048;-91
2021/06/07 10:25:13;;;;;;;2.03;0.60;;;29.60;69.00;;;;;;5063506;28;20045;-91
2021/06/07 10:27:39;;;;;;;2.70;0.98;;;29.80;67.40;;;;;;5063227;28;20025;-91
2021/06/07 10:33:54;;;;;;;2.80;0.80;;;29.80;64.50;;;;;;5020698;28;20529;-91
2021/06/07 10:36:36;;;;;;;;;;;;;;;;;;;;;
2021/06/07 10:39:45;;;;;;;;;;;;;;;;;;;;;
2021/06/07 10:42:27;;;;;;;0.95;0.50;;;30.20;63.00;;;;;;5099255;28;20036;-86
2021/06/07 10:45:27;;;;;;;2.00;0.80;;;30.60;62.80;;;;;;5085925;28;20033;-89
2021/06/07 10:48:52;;;;;;;;;;;;;;;;;;;;;
2021/06/07 10:51:58;;;;;;;1.30;0.63;;;31.10;61.40;;;;;;4993463;28;20030;-90
2021/06/07 10:54:46;;;;;;;1.83;0.57;;;30.80;60.20;;;;;;4998407;28;20034;-89
2021/06/07 10:57:39;;;;;;;1.67;0.68;;;30.90;60.20;;;;;;5004703;28;20212;-91
2021/06/07 11:00:58;;;;;;;2.20;0.70;;;31.00;59.30;;;;;;5028233;28;20070;-89
2021/06/07 11:04:29;;;;;;;;;;;;;;;;;;;;;
2021/06/07 11:07:58;;;;;;;;;;;;;;;;;;;;;
2021/06/07 11:11:24;;;;;;;;;;;;;;;;;;;;;
2021/06/07 11:18:48;;;;;;;1.00;0.55;;;31.50;57.70;;;;;;4882863;29;20124;-89
2021/06/07 11:21:26;;;;;;;1.55;0.70;;;31.80;56.70;;;;;;4840292;29;20049;-91
2021/06/07 11:27:06;;;;;;;;;;;;;;;;;;;;;
2021/06/07 11:30:19;;;;;;;;;;;;;;;;;;;;;
2021/06/07 11:33:08;;;;;;;1.23;0.60;;;31.50;56.70;;;;;;5073200;28;20025;-89
2021/06/07 11:35:54;;;;;;;0.93;0.50;;;31.50;56.20;;;;;;5070065;28;20036;-89
2021/06/07 11:38:46;;;;;;;;;;;;;;;;;;;;;
2021/06/07 11:42:06;;;;;;;2.05;0.70;;;32.00;54.80;;;;;;5069139;28;20017;-89
2021/06/07 11:45:02;;;;;;;1.90;0.68;;;32.00;54.00;;;;;;4957147;28;20057;-89
2021/06/07 11:47:49;;;;;;;3.60;0.75;;;32.10;54.90;;;;;;5046684;28;20039;-89
2021/06/07 11:50:40;;;;;;;;;;;;;;;;;;;;;
2021/06/07 11:53:31;;;;;;;2.05;0.70;;;32.60;54.50;;;;;;5065878;28;20464;-94
2021/06/07 11:56:15;;;;;;;;;;;;;;;;;;;;;
2021/06/07 11:58:47;;;;;;;1.75;0.68;;;32.60;54.00;;;;;;5073144;28;20030;-89
2021/06/07 12:01:37;;;;;;;1.90;0.60;;;32.50;53.90;;;;;;5068740;28;20031;-91
2021/06/07 12:04:09;;;;;;;1.05;0.65;;;32.50;52.10;;;;;;5067827;28;20037;-90
2021/06/07 12:06:40;;;;;;;3.03;0.60;;;32.20;53.50;;;;;;5033264;28;20090;-90
2021/06/07 12:09:15;;;;;;;0.93;0.50;;;32.30;53.30;;;;;;5050537;28;20032;-88
2021/06/07 12:11:44;;;;;;;1.40;0.50;;;32.30;52.90;;;;;;5055384;28;20060;-90
2021/06/07 12:14:24;;;;;;;1.38;0.75;;;32.50;53.20;;;;;;5049906;28;20086;-88
2021/06/07 12:21:25;;;;;;;;;;;;;;;;;;;;;
2021/06/07 12:24:24;;;;;;;1.48;0.60;;;32.60;51.50;;;;;;5072863;28;20046;-90
2021/06/07 12:29:42;;;;;;;1.75;0.70;;;32.80;52.80;;;;;;5098234;28;20067;-88
2021/06/07 12:35:15;;;;;;;;;;;33.10;52.50;;;;;;5068068;28;20849;-87
2021/06/07 12:38:05;;;;;;;1.42;0.70;;;32.90;52.50;;;;;;5069147;28;19954;-90
2021/06/07 12:41:27;;;;;;;1.33;0.50;;;33.10;53.20;;;;;;5052975;28;20060;-89
2021/06/07 12:43:55;;;;;;;3.83;0.60;;;33.40;52.40;;;;;;5060784;28;20563;-90
2021/06/07 12:47:18;;;;;;;2.83;0.80;;;33.40;52.20;;;;;;5050504;28;20100;-87
2021/06/07 12:56:56;;;;;;;1.35;0.70;;;33.30;50.90;;;;;;5056945;28;20103;-89
2021/06/07 12:59:42;;;;;;;;;;;;;;;;;;;;;
2021/06/07 13:03:08;;;;;;;;;;;;;;;;;;;;;
2021/06/07 13:05:45;;;;;;;1.63;0.60;;;33.00;50.40;;;;;;5068441;28;20035;-87
2021/06/07 13:08:51;;;;;;;1.55;0.50;;;32.90;49.90;;;;;;5045730;28;20041;-89
2021/06/07 13:11:52;;;;;;;1.45;0.65;;;33.00;50.40;;;;;;5037942;28;20060;-88
2021/06/07 13:14:17;;;;;;;1.90;0.70;;;33.00;49.20;;;;;;5044201;28;20106;-89
2021/06/07 13:16:46;;;;;;;0.80;0.60;;;32.90;49.00;;;;;;5052256;28;20036;-88
2021/06/07 13:19:45;;;;;;;;;;;;;;;;;;;;;
2021/06/07 13:22:16;;;;;;;1.40;0.40;;;33.10;49.80;;;;;;5049964;28;20480;-90
2021/06/07 13:24:44;;;;;;;2.40;0.60;;;33.30;49.70;;;;;;5055311;28;20098;-89
2021/06/07 13:27:25;;;;;;;2.13;0.60;;;33.20;48.90;;;;;;5068714;28;20041;-89
2021/06/07 13:30:08;;;;;;;1.45;0.60;;;33.30;48.80;;;;;;5050882;28;20037;-90
2021/06/07 13:32:42;;;;;;;2.45;0.55;;;33.20;48.60;;;;;;5062002;28;20182;-88
2021/06/07 13:35:11;;;;;;;1.95;0.52;;;33.30;48.30;;;;;;5071666;28;20051;-89
2021/06/07 13:38:06;;;;;;;1.13;0.38;;;33.20;49.40;;;;;;5080182;28;20038;-88
2021/06/07 13:40:44;;;;;;;1.05;0.40;;;33.10;49.00;;;;;;5042887;28;20500;-89
2021/06/07 13:43:28;;;;;;;1.15;0.50;;;33.00;48.70;;;;;;5055039;28;20468;-89
2021/06/07 13:45:58;;;;;;;0.98;0.40;;;33.10;48.70;;;;;;5054616;28;20028;-89
2021/06/07 13:48:53;;;;;;;0.85;0.50;;;33.20;49.30;;;;;;5072320;28;20024;-91
2021/06/07 13:51:35;;;;;;;1.65;0.60;;;33.00;48.60;;;;;;5034580;28;20511;-88
2021/06/07 13:54:25;;;;;;;;;;;;;;;;;;;;;
2021/06/07 13:57:10;;;;;;;1.05;0.40;;;32.90;49.60;;;;;;5071083;28;20021;-87
2021/06/07 13:59:39;;;;;;;1.30;0.60;;;33.00;49.70;;;;;;5066297;28;20036;-88
2021/06/07 14:02:07;;;;;;;1.90;0.60;;;32.90;48.90;;;;;;5046405;28;20134;-87
2021/06/07 14:04:41;;;;;;;0.90;0.60;;;32.60;49.00;;;;;;5053334;28;20025;-90
2021/06/07 14:07:15;;;;;;;1.60;0.60;;;32.20;48.90;;;;;;5053460;28;20086;-87
2021/06/07 14:09:42;;;;;;;1.65;0.70;;;32.00;49.10;;;;;;5071357;28;20036;-87
2021/06/07 14:12:08;;;;;;;1.83;0.63;;;31.80;49.80;;;;;;5053635;28;20044;-88
2021/06/07 14:17:34;;;;;;;;;;;;;;;;;;;;;
2021/06/07 14:20:05;;;;;;;1.40;0.73;;;31.80;50.60;;;;;;5078368;28;20081;-89
2021/06/07 14:25:16;;;;;;;2.58;0.80;;;31.60;50.60;;;;;;5073097;28;20063;-90
2021/06/07 14:27:50;;;;;;;1.10;0.50;;;31.60;51.10;;;;;;5068605;28;20025;-87
2021/06/07 14:30:17;;;;;;;1.95;0.80;;;31.60;51.10;;;;;;5049561;28;20052;-90
2021/06/07 14:32:53;;;;;;;;;;;;;;;;;;;;;
2021/06/07 14:35:49;;;;;;;1.50;0.60;;;31.90;50.80;;;;;;5058017;28;20019;-88
2021/06/07 14:41:40;;;;;;;3.45;0.80;;;31.80;50.10;;;;;;5062313;28;20033;-90
2021/06/07 14:44:24;;;;;;;2.80;0.70;;;31.70;49.90;;;;;;5073933;28;20071;-90
2021/06/07 14:46:51;;;;;;;1.10;0.82;;;31.30;50.40;;;;;;5056584;28;20028;-90
2021/06/07 14:49:50;;;;;;;1.50;0.73;;;30.90;51.30;;;;;;5056397;28;20032;-91
2021/06/07 14:52:35;;;;;;;1.30;0.60;;;30.70;51.80;;;;;;5054168;28;20044;-89
2021/06/07 14:55:21;;;;;;;1.63;0.80;;;30.50;52.60;;;;;;5065185;28;20043;-91
2021/06/07 14:58:51;;;;;;;;;;;;;;;;;;;;;
2021/06/07 15:01:36;;;;;;;1.45;0.82;;;30.30;51.80;;;;;;5071886;28;20459;-88
2021/06/07 15:05:13;;;;;;;;;;;;;;;;;;;;;
2021/06/07 15:07:52;;;;;;;2.85;0.80;;;30.40;52.20;;;;;;5001846;28;20034;-86
2021/06/07 15:10:22;;;;;;;2.17;0.73;;;30.60;52.60;;;;;;4974408;28;20421;-88
2021/06/07 15:12:49;;;;;;;1.60;0.75;;;30.80;52.20;;;;;;5025348;28;20044;-87
2021/06/07 15:15:42;;;;;;;1.42;0.60;;;30.70;51.90;;;;;;5056724;28;20028;-87
2021/06/07 15:18:12;;;;;;;1.92;0.80;;;30.60;51.40;;;;;;5056907;28;20035;-87
2021/06/07 15:20:43;;;;;;;1.15;0.60;;;30.50;51.30;;;;;;5058190;28;20051;-87